Deadwood, Oregon
Current Conditions -  °F | °C
As of 9:54 PM on Wednesday 22 Oct 2014 (Local Time) from KEUG Reporting Station
Overcast Overcast  
Wind Chill: 58°   Ceiling: 2500
Heat Index: 58°   Visibility: 10mi
Dew Point: 55°   Wind: 9mph
Humidity: 90%   Direction: 180°S
Pressure: 29.8"   Gusts: NA
Location:  44.1°N, 123.76°W
Report Text: KEUG 230454Z 18008KT 10SM FEW020 OVC025 14/13 A2980 RMK AO2 SLP090 T01440128
Loading
Personal Weather Stations






























Interactive Weather Map New forecast layout! Learn more

10-Day Weather Forecast

Advertisements
Track Severe Weather on mobile